createdAt,value
2023-03-03T10:04:43.233Z,31.16
2023-03-03T10:05:44.835Z,30.90
2023-03-03T10:06:44.341Z,31.42
2023-03-03T10:07:44.111Z,31.25
2023-03-03T10:08:44.193Z,31.61
2023-03-03T10:09:44.321Z,31.32
2023-03-03T10:10:44.355Z,31.15
2023-03-03T10:11:44.078Z,31.12
2023-03-03T10:12:44.074Z,31.10
2023-03-03T10:13:44.063Z,31.09
2023-03-03T10:14:44.347Z,31.07
2023-03-03T10:15:44.328Z,31.05
2023-03-03T10:16:44.144Z,31.12
2023-03-03T10:17:44.036Z,31.00
2023-03-03T10:18:44.009Z,30.99
2023-03-03T10:19:44.424Z,31.19
2023-03-03T10:20:50.190Z,31.16
2023-03-03T10:21:43.986Z,31.27
2023-03-03T10:22:43.977Z,31.67
2023-03-03T10:23:43.962Z,31.45
2023-03-03T10:24:43.955Z,31.59
2023-03-03T10:25:44.328Z,31.42
2023-03-03T10:26:47.388Z,31.31
2023-03-03T10:27:44.327Z,31.21
2023-03-03T10:28:43.926Z,31.01
2023-03-03T10:29:43.913Z,30.85
2023-03-03T10:30:58.443Z,30.82
2023-03-03T10:31:43.905Z,30.70
2023-03-03T10:32:44.101Z,30.64
2023-03-03T10:33:44.146Z,30.59
2023-03-03T10:34:43.865Z,30.45
2023-03-03T10:35:51.126Z,30.51
2023-03-03T10:36:43.883Z,30.47
2023-03-03T10:37:43.831Z,30.51
2023-03-03T10:38:44.568Z,30.37
2023-03-03T10:39:43.822Z,30.36
2023-03-03T10:40:43.808Z,30.43
2023-03-03T10:41:43.797Z,30.46
2023-03-03T10:42:45.062Z,30.39
2023-03-03T10:43:43.778Z,30.26
2023-03-03T10:44:43.777Z,30.31
2023-03-03T10:45:43.833Z,30.35
2023-03-03T10:46:43.753Z,30.29
2023-03-03T10:47:43.931Z,30.18
2023-03-03T10:48:43.733Z,30.16
2023-03-03T10:49:43.732Z,30.19
2023-03-03T10:50:43.731Z,30.21
2023-03-03T10:51:43.736Z,30.04
2023-03-03T10:52:43.778Z,30.08
2023-03-03T10:53:43.841Z,30.16
2023-03-03T10:54:43.678Z,30.15
2023-03-03T10:55:43.720Z,30.22
2023-03-03T10:56:52.895Z,30.12
2023-03-03T10:57:44.388Z,30.20
2023-03-03T10:58:43.920Z,30.25
2023-03-03T10:59:43.637Z,30.30
2023-03-03T11:00:43.727Z,30.22
2023-03-03T11:01:43.658Z,30.15
2023-03-03T11:02:43.613Z,30.18
2023-03-03T11:03:43.611Z,30.15
2023-03-03T11:04:43.641Z,30.13
2023-03-03T11:05:43.662Z,30.04
2023-03-03T11:06:43.568Z,30.17
2023-03-03T11:07:43.590Z,30.05
2023-03-03T11:08:43.875Z,30.04
2023-03-03T11:09:43.553Z,30.15
2023-03-03T11:10:43.850Z,30.19
2023-03-03T11:11:43.637Z,30.11
2023-03-03T11:12:43.865Z,30.15
2023-03-03T11:13:43.504Z,30.09
2023-03-03T11:14:43.505Z,30.07
2023-03-03T11:15:43.484Z,30.11
2023-03-03T11:16:43.892Z,30.15
2023-03-03T11:17:44.835Z,30.10
2023-03-03T11:18:43.492Z,30.02
2023-03-03T11:19:43.913Z,30.10
2023-03-03T11:20:43.464Z,30.02
2023-03-03T11:21:43.435Z,30.02
2023-03-03T11:22:43.886Z,29.95
2023-03-03T11:23:43.433Z,30.05
2023-03-03T11:24:43.434Z,30.01
2023-03-03T11:25:43.395Z,30.01
2023-03-03T11:26:43.413Z,30.00
2023-03-03T11:27:43.856Z,30.07
2023-03-03T11:28:43.866Z,30.09
2023-03-03T11:29:43.872Z,30.07
2023-03-03T11:30:43.389Z,30.09
2023-03-03T11:31:43.351Z,30.06
2023-03-03T11:32:43.331Z,30.09
2023-03-03T11:33:43.329Z,30.08
2023-03-03T11:34:43.367Z,30.08
2023-03-03T11:35:43.362Z,30.13
2023-03-03T11:36:43.303Z,30.07
2023-03-03T11:37:43.297Z,30.07
2023-03-03T11:38:43.284Z,30.13
2023-03-03T11:39:43.403Z,30.14
2023-03-03T11:40:43.284Z,30.15
2023-03-03T11:41:43.262Z,30.13
2023-03-03T11:42:44.242Z,30.14
2023-03-03T11:43:43.235Z,30.04
2023-03-03T11:44:43.504Z,30.11
2023-03-03T11:45:43.218Z,30.11
2023-03-03T11:46:43.209Z,30.15
2023-03-03T11:47:43.194Z,30.06
2023-03-03T11:48:43.528Z,29.99
2023-03-03T11:49:43.193Z,30.04
2023-03-03T11:50:43.369Z,30.05
2023-03-03T11:51:43.167Z,30.07
2023-03-03T11:52:43.176Z,30.07
2023-03-03T11:53:43.149Z,30.01
2023-03-03T11:54:43.129Z,30.00
2023-03-03T11:55:43.131Z,30.02
2023-03-03T11:56:43.160Z,30.03
2023-03-03T11:57:43.121Z,30.02
2023-03-03T11:58:43.105Z,29.97
2023-03-03T11:59:43.086Z,29.97
2023-03-03T12:00:43.099Z,29.98
2023-03-03T12:01:43.438Z,30.00
2023-03-03T12:02:43.123Z,30.05
2023-03-03T12:03:43.056Z,29.96
2023-03-03T12:04:43.361Z,29.97
2023-03-03T12:05:43.156Z,29.94
2023-03-03T12:06:43.053Z,29.94
2023-03-03T12:07:43.131Z,29.96
2023-03-03T12:08:43.002Z,29.99
2023-03-03T12:09:43.022Z,29.98
2023-03-03T12:10:42.978Z,29.94
2023-03-03T12:11:42.991Z,30.01
2023-03-03T12:12:43.018Z,29.94
2023-03-03T12:13:42.982Z,29.91
2023-03-03T12:14:42.945Z,29.87
2023-03-03T12:15:42.977Z,29.70
2023-03-03T12:16:43.366Z,29.96
2023-03-03T12:17:42.922Z,29.84
2023-03-03T12:18:42.924Z,29.79
2023-03-03T12:19:42.895Z,29.70
2023-03-03T12:20:43.203Z,29.64
2023-03-03T12:21:43.615Z,29.61
2023-03-03T12:22:42.866Z,29.62
2023-03-03T12:23:43.264Z,29.68
2023-03-03T12:24:42.922Z,29.51
2023-03-03T12:25:43.321Z,29.53
2023-03-03T12:26:42.922Z,29.62
2023-03-03T12:27:42.867Z,29.55
2023-03-03T12:28:42.870Z,29.57
2023-03-03T12:29:42.814Z,29.58
2023-03-03T12:30:42.810Z,29.47
2023-03-03T12:31:42.845Z,29.57
2023-03-03T12:32:42.876Z,29.54
2023-03-03T12:33:42.772Z,29.54
2023-03-03T12:34:42.761Z,29.51
2023-03-03T12:35:42.787Z,29.43
2023-03-03T12:36:42.740Z,29.40
2023-03-03T12:37:42.736Z,29.44
2023-03-03T12:38:42.721Z,29.42
2023-03-03T12:39:42.757Z,29.45
2023-03-03T12:40:42.725Z,29.37
2023-03-03T12:41:42.701Z,29.32
2023-03-03T12:42:42.717Z,29.30
2023-03-03T12:43:42.678Z,29.23
2023-03-03T12:44:42.702Z,29.31
2023-03-03T12:45:43.356Z,29.39
2023-03-03T12:46:42.715Z,29.36
2023-03-03T12:47:42.647Z,29.31
2023-03-03T12:48:42.636Z,29.40
2023-03-03T12:49:45.138Z,29.39
2023-03-03T12:50:42.622Z,29.36
2023-03-03T12:51:42.607Z,29.31
2023-03-03T12:52:42.881Z,29.34
2023-03-03T12:53:42.594Z,29.39
2023-03-03T12:54:42.894Z,29.35
2023-03-03T12:55:42.576Z,29.36
2023-03-03T12:56:42.597Z,29.38
2023-03-03T12:57:42.576Z,29.37
2023-03-03T12:58:42.573Z,29.35
2023-03-03T12:59:42.538Z,29.37
2023-03-03T13:00:42.578Z,29.45
2023-03-03T13:01:42.915Z,29.46
2023-03-03T13:02:42.510Z,29.43
2023-03-03T13:03:54.915Z,29.42
2023-03-03T13:04:42.487Z,29.44
2023-03-03T13:05:45.346Z,29.49
2023-03-03T13:06:42.484Z,29.43
2023-03-03T13:07:42.517Z,29.44
2023-03-03T13:08:42.461Z,29.47
2023-03-03T13:09:42.884Z,29.51
2023-03-03T13:10:42.452Z,29.56
2023-03-03T13:11:42.452Z,29.54
2023-03-03T13:12:42.422Z,29.57
2023-03-03T13:13:45.612Z,29.54
2023-03-03T13:14:42.409Z,29.49
2023-03-03T13:15:51.830Z,29.54
2023-03-03T13:16:42.430Z,29.54
2023-03-03T13:17:42.368Z,29.94
2023-03-03T13:18:42.365Z,30.09
2023-03-03T13:19:42.347Z,29.98
2023-03-03T13:20:42.344Z,29.86
2023-03-03T13:21:42.336Z,29.91
2023-03-03T13:22:42.321Z,29.93
2023-03-03T13:23:43.383Z,30.19
2023-03-03T13:24:42.737Z,30.10
2023-03-03T13:25:42.382Z,30.24
2023-03-03T13:26:42.282Z,30.39
2023-03-03T13:27:42.290Z,30.79
2023-03-03T13:28:42.265Z,31.12
2023-03-03T13:29:42.257Z,31.35
2023-03-03T13:30:42.399Z,31.49
2023-03-03T13:31:42.290Z,31.60
2023-03-03T13:32:43.198Z,31.63
2023-03-03T13:33:42.220Z,31.56
2023-03-03T13:34:42.211Z,31.53
2023-03-03T13:35:42.240Z,31.50
2023-03-03T13:36:42.446Z,31.53
2023-03-03T13:37:42.201Z,31.52
2023-03-03T13:38:42.612Z,31.52
2023-03-03T13:39:42.167Z,31.49
2023-03-03T13:40:42.166Z,31.40
2023-03-03T13:41:42.407Z,31.39
2023-03-03T13:42:42.141Z,31.37
2023-03-03T13:43:42.128Z,31.32
2023-03-03T13:44:42.625Z,31.19
2023-03-03T13:45:42.137Z,31.13
2023-03-03T13:46:42.409Z,31.11
2023-03-03T13:47:42.897Z,31.13
2023-03-03T13:48:42.122Z,31.09
2023-03-03T13:49:42.064Z,31.07
2023-03-03T13:50:42.059Z,31.05
2023-03-03T13:51:42.067Z,31.01
2023-03-03T13:52:42.047Z,31.01
2023-03-03T13:53:42.427Z,30.83
2023-03-03T13:54:42.030Z,30.85
2023-03-03T13:55:42.079Z,30.83
2023-03-03T13:56:42.492Z,30.82
2023-03-03T13:57:42.017Z,30.82
2023-03-03T13:58:42.454Z,30.78
2023-03-03T13:59:41.986Z,30.77
2023-03-03T14:00:42.018Z,30.70
2023-03-03T14:01:42.976Z,30.68
2023-03-03T14:02:42.428Z,30.70
2023-03-03T14:03:41.968Z,30.67
2023-03-03T14:04:41.962Z,30.64
2023-03-03T14:05:42.413Z,30.62
2023-03-03T14:06:41.917Z,30.52
2023-03-03T14:07:41.905Z,30.52
2023-03-03T14:08:41.919Z,30.53
2023-03-03T14:09:41.884Z,30.51
2023-03-03T14:10:41.881Z,30.52
2023-03-03T14:11:41.870Z,30.40
2023-03-03T14:12:41.905Z,30.44
2023-03-03T14:13:41.859Z,30.42
2023-03-03T14:14:41.850Z,30.38
2023-03-03T14:15:41.841Z,30.40
2023-03-03T14:16:41.899Z,30.34
2023-03-03T14:17:41.910Z,30.31
2023-03-03T14:18:41.816Z,30.34
2023-03-03T14:19:41.814Z,30.29
2023-03-03T14:20:41.824Z,30.24
2023-03-03T14:21:41.780Z,30.22
2023-03-03T14:22:41.774Z,30.22
2023-03-03T14:23:41.759Z,30.22
2023-03-03T14:24:41.751Z,30.20
2023-03-03T14:25:41.755Z,30.22
2023-03-03T14:26:41.744Z,30.23
2023-03-03T14:27:41.910Z,30.16
2023-03-03T14:28:41.713Z,30.16
2023-03-03T14:29:41.705Z,30.12
2023-03-03T14:30:41.750Z,30.08
2023-03-03T14:31:41.686Z,30.09
2023-03-03T14:32:45.583Z,30.10
2023-03-03T14:33:41.680Z,30.09
2023-03-03T14:34:41.919Z,30.07
2023-03-03T14:35:41.734Z,30.08
2023-03-03T14:36:41.667Z,30.07
2023-03-03T14:37:41.629Z,30.10
2023-03-03T14:38:41.621Z,30.15
2023-03-03T14:39:41.636Z,30.12
2023-03-03T14:40:41.611Z,30.10
2023-03-03T14:41:41.621Z,30.08
2023-03-03T14:42:41.591Z,30.08
2023-03-03T14:43:41.578Z,30.05
2023-03-03T14:44:41.641Z,30.05
2023-03-03T14:45:41.563Z,30.15
2023-03-03T14:46:41.565Z,30.13
2023-03-03T14:47:41.548Z,30.22
2023-03-03T14:48:41.536Z,30.22
2023-03-03T14:49:40.549Z,30.24
2023-03-03T14:50:41.541Z,30.24
2023-03-03T14:51:41.679Z,30.23
2023-03-03T14:52:41.524Z,30.18
2023-03-03T14:53:41.485Z,30.26
2023-03-03T14:54:42.427Z,30.26
2023-03-03T14:55:41.932Z,30.27
2023-03-03T14:56:41.458Z,30.33
2023-03-03T14:57:41.470Z,30.24
2023-03-03T14:58:41.455Z,30.22
2023-03-03T14:59:41.950Z,30.29
2023-03-03T15:00:41.423Z,30.30
2023-03-03T15:01:41.451Z,30.34
2023-03-03T15:02:41.403Z,30.34
2023-03-03T15:03:41.397Z,30.25
2023-03-03T15:04:41.440Z,30.25
2023-03-03T15:05:41.378Z,30.31
2023-03-03T15:06:41.372Z,30.36
2023-03-03T15:07:41.354Z,30.35
2023-03-03T15:08:41.401Z,30.33
2023-03-03T15:09:43.464Z,30.29
2023-03-03T15:10:41.432Z,30.32
2023-03-03T15:11:41.327Z,30.36
2023-03-03T15:12:41.324Z,30.37
2023-03-03T15:13:41.317Z,30.40
2023-03-03T15:14:41.300Z,30.43
2023-03-03T15:15:41.299Z,30.44
2023-03-03T15:16:41.276Z,30.44
2023-03-03T15:17:41.280Z,30.40
2023-03-03T15:18:41.266Z,30.40
2023-03-03T15:19:41.286Z,30.40
2023-03-03T15:20:42.933Z,30.43
2023-03-03T15:21:41.415Z,30.42
2023-03-03T15:22:41.408Z,30.42
2023-03-03T15:23:41.395Z,30.48
2023-03-03T15:24:41.625Z,30.41
2023-03-03T15:25:44.034Z,30.40
2023-03-03T15:26:41.376Z,30.42
2023-03-03T15:27:41.360Z,30.44
2023-03-03T15:28:41.372Z,30.41
2023-03-03T15:29:41.363Z,30.44
2023-03-03T15:30:41.330Z,30.38
2023-03-03T15:31:41.333Z,30.42
2023-03-03T15:32:41.668Z,30.42
2023-03-03T15:33:41.312Z,30.42
2023-03-03T15:34:41.302Z,30.46
2023-03-03T15:35:41.357Z,30.46
2023-03-03T15:36:41.280Z,30.43
2023-03-03T15:37:41.437Z,30.42
2023-03-03T15:38:41.257Z,30.42
2023-03-03T15:39:41.248Z,30.40
2023-03-03T15:40:41.263Z,30.38
2023-03-03T15:41:41.233Z,30.36
2023-03-03T15:42:41.227Z,30.35
2023-03-03T15:43:42.249Z,30.35
2023-03-03T15:44:41.203Z,30.40
2023-03-03T15:45:41.191Z,30.39
2023-03-03T15:46:41.223Z,30.42
2023-03-03T15:47:41.191Z,30.40
2023-03-03T15:48:41.167Z,30.40
2023-03-03T15:49:41.157Z,30.41
2023-03-03T15:50:41.146Z,30.38
2023-03-03T15:51:46.058Z,30.42
2023-03-03T15:52:41.130Z,30.49
2023-03-03T15:53:41.123Z,30.46
2023-03-03T15:54:41.106Z,30.45
2023-03-03T15:55:41.124Z,30.46
2023-03-03T15:56:41.119Z,30.48
2023-03-03T15:57:41.081Z,30.48
2023-03-03T15:58:41.140Z,30.50
2023-03-03T15:59:41.057Z,30.51
2023-03-03T16:00:41.083Z,30.46
2023-03-03T16:01:41.078Z,30.42
2023-03-03T16:02:41.104Z,30.44
2023-03-03T16:03:41.037Z,30.51
2023-03-03T16:04:41.057Z,30.48
2023-03-03T16:05:41.001Z,30.47
2023-03-03T16:06:41.027Z,30.43
2023-03-03T16:07:40.991Z,30.44
2023-03-03T16:08:40.994Z,30.42
2023-03-03T16:09:40.982Z,30.44
2023-03-03T16:10:40.964Z,30.43
2023-03-03T16:11:41.440Z,30.46
2023-03-03T16:12:40.963Z,30.40
2023-03-03T16:13:41.448Z,30.36
2023-03-03T16:14:40.926Z,30.37
2023-03-03T16:15:40.919Z,30.39
2023-03-03T16:16:40.951Z,30.36
2023-03-03T16:17:40.892Z,30.35
2023-03-03T16:18:40.889Z,30.40
2023-03-03T16:19:40.875Z,30.40
2023-03-03T16:20:40.877Z,30.36
2023-03-03T16:21:40.910Z,30.37
2023-03-03T16:22:40.853Z,30.37
2023-03-03T16:23:40.877Z,30.39
2023-03-03T16:24:40.831Z,30.35
2023-03-03T16:25:40.822Z,30.34
2023-03-03T16:26:40.850Z,30.31
2023-03-03T16:27:40.820Z,30.29
2023-03-03T16:28:40.823Z,30.28
2023-03-03T16:29:40.788Z,30.29
2023-03-03T16:30:40.776Z,30.29
2023-03-03T16:31:40.884Z,30.29
2023-03-03T16:32:40.802Z,30.28
2023-03-03T16:33:40.751Z,30.32
2023-03-03T16:34:40.743Z,30.32
2023-03-03T16:35:40.803Z,30.30
2023-03-03T16:36:40.724Z,30.29
2023-03-03T16:37:40.722Z,30.30
2023-03-03T16:38:40.714Z,30.37
2023-03-03T16:39:40.698Z,30.29
2023-03-03T16:40:40.691Z,30.27
2023-03-03T16:41:40.710Z,30.31
2023-03-03T16:42:40.669Z,30.33
2023-03-03T16:43:40.659Z,30.31
2023-03-03T16:44:40.982Z,30.31
2023-03-03T16:45:40.680Z,30.30
2023-03-03T16:46:40.634Z,30.33
2023-03-03T16:47:40.625Z,30.31
2023-03-03T16:48:40.639Z,30.33
2023-03-03T16:49:40.658Z,30.33
2023-03-03T16:50:40.606Z,30.30
2023-03-03T16:51:40.585Z,30.34
2023-03-03T16:52:40.616Z,30.28
2023-03-03T16:53:40.578Z,30.34
2023-03-03T16:54:40.566Z,30.31
2023-03-03T16:55:40.546Z,30.30
2023-03-03T16:56:40.540Z,30.33
2023-03-03T16:57:40.531Z,30.28
2023-03-03T16:58:40.544Z,30.30
2023-03-03T16:59:40.517Z,30.30
2023-03-03T17:00:40.594Z,30.32
2023-03-03T17:01:40.496Z,30.34
2023-03-03T17:02:40.482Z,30.29
2023-03-03T17:03:40.513Z,30.35
2023-03-03T17:04:40.553Z,30.30
2023-03-03T17:05:40.465Z,30.32
2023-03-03T17:06:40.442Z,30.28
2023-03-03T17:07:40.440Z,30.29
2023-03-03T17:08:40.433Z,30.29
2023-03-03T17:09:40.418Z,30.28
2023-03-03T17:10:40.405Z,30.33
2023-03-03T17:11:40.404Z,30.31
2023-03-03T17:12:40.381Z,30.32
2023-03-03T17:13:40.379Z,30.29
2023-03-03T17:14:40.365Z,30.29
2023-03-03T17:15:40.369Z,30.33
2023-03-03T17:16:51.978Z,30.32
2023-03-03T17:17:40.344Z,30.33
2023-03-03T17:18:40.340Z,30.28
2023-03-03T17:19:40.320Z,30.33
2023-03-03T17:20:40.315Z,30.31
2023-03-03T17:21:40.300Z,30.30
2023-03-03T17:22:40.291Z,30.33
2023-03-03T17:23:40.707Z,30.29
2023-03-03T17:24:40.273Z,30.32
2023-03-03T17:25:40.262Z,30.34
2023-03-03T17:26:40.258Z,30.32
2023-03-03T17:27:40.242Z,30.30
2023-03-03T17:28:40.230Z,30.30
2023-03-03T17:29:40.222Z,30.34
2023-03-03T17:30:40.219Z,30.31
2023-03-03T17:31:41.032Z,30.31
2023-03-03T17:32:40.304Z,30.38
2023-03-03T17:33:40.200Z,30.33
2023-03-03T17:34:40.177Z,30.33
2023-03-03T17:35:40.218Z,30.31
2023-03-03T17:36:40.163Z,30.33
2023-03-03T17:37:40.181Z,30.36
2023-03-03T17:38:40.151Z,30.35
2023-03-03T17:39:40.163Z,30.31
2023-03-03T17:40:40.122Z,30.34
2023-03-03T17:41:40.128Z,30.39
2023-03-03T17:42:40.112Z,30.36
2023-03-03T17:43:40.096Z,30.40
2023-03-03T17:44:40.115Z,30.40
2023-03-03T17:45:40.146Z,30.42
2023-03-03T17:46:40.068Z,30.43
2023-03-03T17:47:40.096Z,30.44
2023-03-03T17:48:40.077Z,30.43
2023-03-03T17:49:40.068Z,30.44
2023-03-03T17:50:40.402Z,30.47
2023-03-03T17:51:40.238Z,30.47
2023-03-03T17:52:40.701Z,30.47
2023-03-03T17:53:40.468Z,30.48
2023-03-03T17:54:40.732Z,30.48
2023-03-03T17:55:40.462Z,30.42
2023-03-03T17:56:40.732Z,30.42
2023-03-03T17:57:40.509Z,30.41
2023-03-03T17:58:40.842Z,30.44
2023-03-03T17:59:40.743Z,30.41
2023-03-03T18:00:39.944Z,30.40
2023-03-03T18:01:39.939Z,30.40
2023-03-03T18:02:39.995Z,30.44
2023-03-03T18:03:39.912Z,30.47
2023-03-03T18:04:39.927Z,30.41
2023-03-03T18:05:39.914Z,30.41
2023-03-03T18:06:39.884Z,30.41
2023-03-03T18:07:39.874Z,30.44
2023-03-03T18:08:39.867Z,30.47
2023-03-03T18:09:39.894Z,30.44
2023-03-03T18:10:42.097Z,30.46
2023-03-03T18:11:39.844Z,30.46
2023-03-03T18:12:39.828Z,30.48
2023-03-03T18:13:39.816Z,30.47
2023-03-03T18:14:39.814Z,30.49
2023-03-03T18:15:39.903Z,30.50
2023-03-03T18:16:39.858Z,30.45
2023-03-03T18:17:39.791Z,30.47
2023-03-03T18:18:39.772Z,30.54
2023-03-03T18:19:39.760Z,30.54
2023-03-03T18:20:39.787Z,30.57
2023-03-03T18:21:39.742Z,30.53
2023-03-03T18:22:39.731Z,30.53
2023-03-03T18:23:39.756Z,30.51
2023-03-03T18:24:39.718Z,30.50
2023-03-03T18:25:39.708Z,30.54
2023-03-03T18:26:39.706Z,30.55
2023-03-03T18:27:39.690Z,30.54
2023-03-03T18:28:39.710Z,30.51
2023-03-03T18:29:39.669Z,30.50
2023-03-03T18:30:39.680Z,30.51
2023-03-03T18:31:39.654Z,30.54
2023-03-03T18:32:39.634Z,30.51
2023-03-03T18:33:39.629Z,30.53
2023-03-03T18:34:39.629Z,30.51
2023-03-03T18:35:39.655Z,30.48
2023-03-03T18:36:39.648Z,30.53
2023-03-03T18:37:39.607Z,30.53
2023-03-03T18:38:39.612Z,30.51
2023-03-03T18:39:39.566Z,30.51
2023-03-03T18:40:39.559Z,30.53
2023-03-03T18:41:39.550Z,30.48
2023-03-03T18:42:39.546Z,30.50
2023-03-03T18:43:39.634Z,30.50
2023-03-03T18:44:39.521Z,30.48
2023-03-03T18:45:39.517Z,30.51
2023-03-03T18:46:39.541Z,30.47
2023-03-03T18:47:39.525Z,30.47
2023-03-03T18:48:39.487Z,30.48
2023-03-03T18:49:39.479Z,30.52
2023-03-03T18:50:39.464Z,30.52
2023-03-03T18:51:39.493Z,30.50
2023-03-03T18:52:39.468Z,30.54
2023-03-03T18:53:39.440Z,30.47
2023-03-03T18:54:39.430Z,30.48
2023-03-03T18:55:39.426Z,30.51
2023-03-03T18:56:39.415Z,30.50
2023-03-03T18:57:39.397Z,30.48
2023-03-03T18:58:39.395Z,30.52
2023-03-03T18:59:39.392Z,30.49
2023-03-03T19:00:39.370Z,30.49
2023-03-03T19:01:39.464Z,30.47
2023-03-03T19:02:39.357Z,30.49
2023-03-03T19:03:39.349Z,30.52
2023-03-03T19:04:39.399Z,30.48
2023-03-03T19:05:39.323Z,30.47
2023-03-03T19:06:39.309Z,30.47
2023-03-03T19:07:39.304Z,30.45
2023-03-03T19:08:39.315Z,30.46
2023-03-03T19:09:39.284Z,30.44
2023-03-03T19:10:39.276Z,30.45
2023-03-03T19:11:39.294Z,30.49
2023-03-03T19:12:39.255Z,30.46
2023-03-03T19:13:39.250Z,30.49
2023-03-03T19:14:39.242Z,30.49
2023-03-03T19:15:39.240Z,30.49
2023-03-03T19:16:39.215Z,30.53
2023-03-03T19:17:39.216Z,30.45
2023-03-03T19:18:39.203Z,30.49
2023-03-03T19:19:39.190Z,30.49
2023-03-03T19:20:39.187Z,30.49
2023-03-03T19:21:39.164Z,30.49
2023-03-03T19:22:39.157Z,30.46
2023-03-03T19:23:39.159Z,30.46
2023-03-03T19:24:39.164Z,30.46
2023-03-03T19:25:39.135Z,30.49
2023-03-03T19:26:39.122Z,30.52
2023-03-03T19:27:39.137Z,30.52
2023-03-03T19:28:39.098Z,30.50
2023-03-03T19:29:39.121Z,30.50
2023-03-03T19:30:39.086Z,30.52
2023-03-03T19:31:39.322Z,30.54
2023-03-03T19:32:39.090Z,30.49
2023-03-03T19:33:39.059Z,30.50
2023-03-03T19:34:39.080Z,30.50
2023-03-03T19:35:39.087Z,30.50
2023-03-03T19:36:39.032Z,30.51
2023-03-03T19:37:39.090Z,30.54
2023-03-03T19:38:39.006Z,30.54
2023-03-03T19:39:39.026Z,30.51
2023-03-03T19:40:39.027Z,30.53
2023-03-03T19:41:38.983Z,30.50
2023-03-03T19:42:38.972Z,30.54
2023-03-03T19:43:38.959Z,30.55
2023-03-03T19:44:38.965Z,30.53
2023-03-03T19:45:38.943Z,30.54
2023-03-03T19:46:39.030Z,30.54
2023-03-03T19:47:38.963Z,30.53
2023-03-03T19:48:38.913Z,30.51
2023-03-03T19:49:38.907Z,30.56
2023-03-03T19:50:38.891Z,30.54
2023-03-03T19:51:38.882Z,30.51
2023-03-03T19:52:38.901Z,30.55
2023-03-03T19:53:38.878Z,30.53
2023-03-03T19:54:38.872Z,30.59
2023-03-03T19:55:38.850Z,30.52
2023-03-03T19:56:38.867Z,30.54
2023-03-03T19:57:38.851Z,30.52
2023-03-03T19:58:38.831Z,30.54
2023-03-03T19:59:38.815Z,30.52
2023-03-03T20:00:38.801Z,30.49
2023-03-03T20:01:38.856Z,30.52
2023-03-03T20:02:38.785Z,30.48
2023-03-03T20:03:38.778Z,30.51
2023-03-03T20:04:38.807Z,30.54
2023-03-03T20:05:38.755Z,30.52
2023-03-03T20:06:38.744Z,30.51
2023-03-03T20:07:38.733Z,30.56
2023-03-03T20:08:38.760Z,30.58
2023-03-03T20:09:38.713Z,30.55
2023-03-03T20:10:38.711Z,30.53
2023-03-03T20:11:38.703Z,30.51
2023-03-03T20:12:38.704Z,30.48
2023-03-03T20:13:38.678Z,30.52
2023-03-03T20:14:38.674Z,30.53
2023-03-03T20:15:39.484Z,30.53
2023-03-03T20:16:39.514Z,30.48
2023-03-03T20:17:39.509Z,30.52
2023-03-03T20:18:39.276Z,30.49
2023-03-03T20:19:39.252Z,30.49
2023-03-03T20:20:39.896Z,30.52
2023-03-03T20:21:39.361Z,30.48
2023-03-03T20:22:37.589Z,30.52
2023-03-03T20:23:39.266Z,30.48
2023-03-03T20:24:38.662Z,30.49
2023-03-03T20:25:38.564Z,30.44
2023-03-03T20:26:38.553Z,30.55
2023-03-03T20:27:38.541Z,30.49
2023-03-03T20:28:38.554Z,30.49
2023-03-03T20:29:38.525Z,30.48
2023-03-03T20:30:38.524Z,30.54
2023-03-03T20:31:38.525Z,30.49
2023-03-03T20:32:38.532Z,30.52
2023-03-03T20:33:38.492Z,30.48
2023-03-03T20:34:38.477Z,30.49
2023-03-03T20:35:38.512Z,30.49
2023-03-03T20:36:38.462Z,30.52
2023-03-03T20:37:38.447Z,30.53
2023-03-03T20:38:38.441Z,30.51
2023-03-03T20:39:38.428Z,30.49
2023-03-03T20:40:38.425Z,30.50
2023-03-03T20:41:38.415Z,30.49
2023-03-03T20:42:38.397Z,30.47
2023-03-03T20:43:38.390Z,30.50
2023-03-03T20:44:38.402Z,30.47
2023-03-03T20:45:38.422Z,30.47
2023-03-03T20:46:38.375Z,30.46
2023-03-03T20:47:38.355Z,30.47
2023-03-03T20:48:38.358Z,30.49
2023-03-03T20:49:38.346Z,30.47
2023-03-03T20:50:38.334Z,30.47
2023-03-03T20:51:38.323Z,30.47
2023-03-03T20:52:38.311Z,30.47
2023-03-03T20:53:38.301Z,30.46
2023-03-03T20:54:38.297Z,30.49
2023-03-03T20:55:38.287Z,30.47
2023-03-03T20:56:38.270Z,30.43
2023-03-03T20:57:38.269Z,30.45
2023-03-03T20:58:38.255Z,30.45
2023-03-03T20:59:38.250Z,30.47
2023-03-03T21:00:38.267Z,30.49
2023-03-03T21:01:38.229Z,30.50
2023-03-03T21:02:38.227Z,30.44
2023-03-03T21:03:38.265Z,30.47
2023-03-03T21:04:38.196Z,30.47
2023-03-03T21:05:38.192Z,30.50
2023-03-03T21:06:38.200Z,30.54
2023-03-03T21:07:38.167Z,30.50
2023-03-03T21:08:38.164Z,30.50
2023-03-03T21:09:38.153Z,30.51
2023-03-03T21:10:39.060Z,30.48
2023-03-03T21:11:38.319Z,30.50
2023-03-03T21:12:38.287Z,30.51
2023-03-03T21:13:38.280Z,30.52
2023-03-03T21:14:38.296Z,30.56
2023-03-03T21:15:38.258Z,30.52
2023-03-03T21:16:40.516Z,30.52
2023-03-03T21:17:38.255Z,30.48
2023-03-03T21:18:38.236Z,30.55
2023-03-03T21:19:38.225Z,30.50
2023-03-03T21:20:38.219Z,30.50
2023-03-03T21:21:38.360Z,30.52
2023-03-03T21:22:38.190Z,30.49
2023-03-03T21:23:38.181Z,30.50
2023-03-03T21:24:38.187Z,30.45
2023-03-03T21:25:38.160Z,30.48
2023-03-03T21:26:38.191Z,30.47
2023-03-03T21:27:38.140Z,30.48
2023-03-03T21:28:38.132Z,30.51
2023-03-03T21:29:38.129Z,30.48
2023-03-03T21:30:38.110Z,30.47
2023-03-03T21:31:38.136Z,30.44
2023-03-03T21:32:38.208Z,30.48
2023-03-03T21:33:38.081Z,30.52
2023-03-03T21:34:38.083Z,30.51
2023-03-03T21:35:38.148Z,30.53
2023-03-03T21:36:38.056Z,30.52
2023-03-03T21:37:38.084Z,30.56
2023-03-03T21:38:38.038Z,30.53
2023-03-03T21:39:38.027Z,30.51
2023-03-03T21:40:38.017Z,30.49
2023-03-03T21:41:38.012Z,30.49
2023-03-03T21:42:37.999Z,30.56
2023-03-03T21:43:38.041Z,30.54
2023-03-03T21:44:37.997Z,30.53
2023-03-03T21:45:38.000Z,30.53
2023-03-03T21:46:37.965Z,30.52
2023-03-03T21:47:37.953Z,30.52
2023-03-03T21:48:38.032Z,30.57
2023-03-03T21:49:37.938Z,30.56
2023-03-03T21:50:37.932Z,30.54
2023-03-03T21:51:37.917Z,30.57
2023-03-03T21:52:37.904Z,30.58
2023-03-03T21:53:37.893Z,30.54
2023-03-03T21:54:37.915Z,30.58
2023-03-03T21:55:37.875Z,30.53
2023-03-03T21:56:37.881Z,30.54
2023-03-03T21:57:37.860Z,30.57
2023-03-03T21:58:37.851Z,30.55
2023-03-03T21:59:37.834Z,30.56
2023-03-03T22:00:37.825Z,30.53
2023-03-03T22:01:38.535Z,30.60
2023-03-03T22:02:37.817Z,30.59
2023-03-03T22:03:37.809Z,30.55
2023-03-03T22:04:37.938Z,30.58
2023-03-03T22:05:37.787Z,30.59
2023-03-03T22:06:37.772Z,30.61
2023-03-03T22:07:37.775Z,30.56
2023-03-03T22:08:37.758Z,30.58
2023-03-03T22:09:37.750Z,30.62
2023-03-03T22:10:37.736Z,30.55
2023-03-03T22:11:37.728Z,30.58
2023-03-03T22:12:37.720Z,30.59
2023-03-03T22:13:37.702Z,30.56
2023-03-03T22:14:37.693Z,30.66
2023-03-03T22:15:37.704Z,30.58
2023-03-03T22:16:37.676Z,30.59
2023-03-03T22:17:37.666Z,30.55
2023-03-03T22:18:37.669Z,30.62
2023-03-03T22:19:37.659Z,30.63
2023-03-03T22:20:37.659Z,30.60
2023-03-03T22:21:37.628Z,30.61
2023-03-03T22:22:37.625Z,30.62
2023-03-03T22:23:37.611Z,30.63
2023-03-03T22:24:37.609Z,30.56
2023-03-03T22:25:37.592Z,30.60
2023-03-03T22:26:37.590Z,30.65
2023-03-03T22:27:37.575Z,30.60
2023-03-03T22:28:37.591Z,30.68
2023-03-03T22:29:37.551Z,30.60
2023-03-03T22:30:37.548Z,30.59
2023-03-03T22:31:37.540Z,30.64
2023-03-03T22:32:37.530Z,30.66
2023-03-03T22:33:37.523Z,30.58
2023-03-03T22:34:37.556Z,30.64
2023-03-03T22:35:37.552Z,30.66
2023-03-03T22:36:37.575Z,30.63
2023-03-03T22:37:37.483Z,30.64
2023-03-03T22:38:39.847Z,30.64
2023-03-03T22:39:37.543Z,30.66
2023-03-03T22:40:37.454Z,30.60
2023-03-03T22:41:37.457Z,30.66
2023-03-03T22:42:37.433Z,30.63
2023-03-03T22:43:37.427Z,30.64
2023-03-03T22:44:37.420Z,30.65
2023-03-03T22:45:37.412Z,30.62
2023-03-03T22:46:37.534Z,30.64
2023-03-03T22:47:37.395Z,30.63
2023-03-03T22:48:37.379Z,30.59
2023-03-03T22:49:37.379Z,30.62
2023-03-03T22:50:37.369Z,30.59
2023-03-03T22:51:37.353Z,30.62
2023-03-03T22:52:37.379Z,30.62
2023-03-03T22:53:37.340Z,30.60
2023-03-03T22:54:37.339Z,30.63
2023-03-03T22:55:37.316Z,30.60
2023-03-03T22:56:37.384Z,30.62